Boulder, CO (80301)

12:03 AM MDT on August 31, 2016 (GMT -0600)
63rd St and Jay Rd | | Change Station

Elev 5202 ft 40.06 °N, 105.21 °W | Updated 14 seconds ago

Clear
Clear
62.8 °F
Feels Like 62.8 °F
N
0.9
Wind Variable Wind from NNE
Gusts 2.0 mph

Today
High -- | Low -- °F
--% Chance of Precip.
Yesterday
High -- | Low -- °F
Precip. -- in
Pressure 30.31 in
Visibility 10.0 miles
Clouds Clear
Dew Point 50 °F
Humidity 64%
Rainfall 0.00 in
Snow Depth Not available.
6:28 AM 7:33 PM
Waning Crescent, 1% visible
METAR KBDU 310555Z AUTO 25009G16KT 10SM CLR 19/08 A3031 RMK AO2
Pressure 30.31 in
Visibility 10.0 miles
Clouds Clear
Dew Point 50 °F
Humidity 64%
Rainfall 0.00 in
Snow Depth Not available.
6:28 AM 7:33 PM
Waning Crescent, 1% visible
METAR KBDU 310555Z AUTO 25009G16KT 10SM CLR 19/08 A3031 RMK AO2

10-Day Weather Forecast

Almanac

Astronomy

Aug. 31, 2016 Rise Set
Actual Time
Civil Twilight
Nautical Twilight
Astronomical Twilight
Moon
Length of Visible Light
Length of Day
Tomorrow will be .
, % of the Moon is Illuminated

Today's Extremes

State Highs State Lows

Community

WunderPhotos

Upload Photos

1,936,040 photos uploaded!

WunderBlog® & News

Nearby

Air Quality

  Air Quality AQ Index Pollutant
Not available.

Snow Depth

Station Depth Elevation

Earthquake Activity

City Distance Mag. Time & Date
Minimum magnitude displayed is 2.5.

Coastal Water Temperatures

Place Temperature

Stations

Nearby Weather Stations

Station Location Temp. Windchill Dew Point Humidity Wind Precip. Elev Updated Type
                   

Watches & Warnings

There are currently no watches in effect.